Stellar Pacific — V2QR7 — position and weather

sailwx.info

Track history (hours):
 
Tides and Currents Weather Stations Pressure Air Temp Water Temp Dewpoint Dewpoint Depression Visibility Wind Speed Wind Dir Waves Ship Positions

Stellar Pacific

Last reported at 2018-Feb-11 08:32 UTC. Time now 2018-Feb-19 08:30 UTC.
Position N 46°01' E 030°48'.

Length 135 m; draft 8.3 m.

Type: Cargo ship. MMSI: 304918000.

Date/timePositionNaut miles runAvg speedWind from/ knotsBaromVisibWave heightAir tempDewpointWater temp
2018-Feb-11 08:32N 46°01' E 030°48'2011.8
2018-Feb-11 06:50N 46°20' E 030°55'411.8
2018-Feb-11 06:31N 46°24' E 030°55'611.1
2018-Feb-11 06:00N 46°30' E 030°55'5 7.6
2018-Feb-11 05:24N 46°33' E 030°60'5 0.2
2018-Feb-10 04:48N 46°39' E 031°01'3 7.0
2018-Feb-10 04:25N 46°36' E 031°01'3 7.5
2018-Feb-10 04:00N 46°33' E 030°59'2 4.8
2018-Feb-10 03:30N 46°31' E 030°57'5 9.6
2018-Feb-10 03:01N 46°27' E 030°57'510.2
2018-Feb-10 02:30N 46°21' E 030°57'  
2018-Feb-05 18:32N 39°56' E 018°55'38313.1
2018-Feb-04 13:18N 44°35' E 013°02'513.1
2018-Feb-04 12:52N 44°40' E 012°60'513.2
2018-Feb-04 12:27N 44°46' E 012°57'613.2
2018-Feb-04 11:59N 44°51' E 012°53'713.1
2018-Feb-04 11:29N 44°57' E 012°49'1912.9
2018-Feb-04 10:00N 45°11' E 012°32'1111.4
2018-Feb-04 09:00N 45°20' E 012°21'4 8.1
2018-Feb-04 08:30N 45°21' E 012°15'5 8.7
2018-Feb-04 07:58N 45°26' E 012°16'2 3.6
2018-Feb-04 07:30N 45°27' E 012°14'0 0.8
2018-Feb-04 07:00N 45°28' E 012°14'0 0.0
2018-Feb-04 06:30N 45°28' E 012°14'0 0.0
2018-Feb-04 06:00N 45°28' E 012°14'0 0.0
2018-Feb-04 05:24N 45°28' E 012°14'0 0.0
2018-Feb-04 05:00N 45°28' E 012°14'0 0.0
2018-Feb-04 04:30N 45°28' E 012°14'0 0.0
2018-Feb-04 03:48N 45°28' E 012°14'0 0.0
2018-Feb-04 03:24N 45°28' E 012°14'0 0.0
2018-Feb-04 03:00N 45°28' E 012°14'0 0.0
2018-Feb-04 02:24N 45°28' E 012°14'0 0.0
2018-Feb-04 02:00N 45°28' E 012°14'0 0.0
2018-Feb-04 01:30N 45°28' E 012°14'0 0.0
2018-Feb-04 01:00N 45°28' E 012°14'0 0.0
2018-Feb-04 00:30N 45°28' E 012°14'0 0.0
2018-Feb-04 00:00N 45°28' E 012°14'0 0.0
2018-Feb-03 23:30N 45°28' E 012°14'0 0.0
2018-Feb-03 23:00N 45°28' E 012°14'0 0.0
2018-Feb-03 22:30N 45°28' E 012°14'0 0.0
2018-Feb-03 22:00N 45°28' E 012°14'0 0.0
2018-Feb-03 21:30N 45°28' E 012°14'0 0.0
2018-Feb-03 21:00N 45°28' E 012°14'0 0.0
2018-Feb-03 20:30N 45°28' E 012°14'0 0.0
2018-Feb-03 20:00N 45°28' E 012°14'0 0.0
2018-Feb-03 18:30N 45°28' E 012°14'0 0.0
2018-Feb-03 18:00N 45°28' E 012°14'0 0.0
2018-Feb-03 17:30N 45°28' E 012°14'0 0.0
2018-Feb-03 17:00N 45°28' E 012°14'0 0.0
2018-Feb-03 16:00N 45°28' E 012°14'0 0.0
2018-Feb-03 15:30N 45°28' E 012°14'0 0.0
2018-Feb-03 15:00N 45°28' E 012°14'0 0.0
2018-Feb-03 14:30N 45°28' E 012°14'0 0.0
2018-Feb-03 14:00N 45°28' E 012°14'0 0.0
2018-Feb-03 13:30N 45°28' E 012°14'0 0.0
2018-Feb-03 13:00N 45°28' E 012°14'0 0.0
2018-Feb-03 12:18N 45°28' E 012°14'0 0.0
2018-Feb-03 12:00N 45°28' E 012°14'0 0.0
2018-Feb-03 11:18N 45°28' E 012°14'0 0.0
2018-Feb-03 11:00N 45°28' E 012°14'0 0.0
2018-Feb-03 10:30N 45°28' E 012°14'0 0.0
2018-Feb-03 10:00N 45°28' E 012°14'0 0.0
2018-Feb-03 09:30N 45°28' E 012°14'0 0.0
2018-Feb-03 09:00N 45°28' E 012°14'0 0.0
2018-Feb-03 08:30N 45°28' E 012°14'0 0.0
2018-Feb-03 08:00N 45°28' E 012°14'0 0.0
2018-Feb-03 06:30N 45°28' E 012°14'0 0.0
2018-Feb-03 06:00N 45°28' E 012°14'0 0.0
2018-Feb-03 05:30N 45°28' E 012°14'0 0.0
2018-Feb-03 05:00N 45°28' E 012°14'0 0.0
2018-Feb-03 04:00N 45°28' E 012°14'0 0.0
2018-Feb-03 03:30N 45°28' E 012°14'0 0.0
2018-Feb-03 02:00N 45°28' E 012°14'0 0.0
2018-Feb-03 01:30N 45°28' E 012°14'0 0.0
2018-Feb-03 00:57N 45°28' E 012°14'0 0.0
2018-Feb-03 00:27N 45°28' E 012°14'0 0.0
2018-Feb-02 23:57N 45°28' E 012°14'0 0.0
2018-Feb-02 23:21N 45°28' E 012°14'0 0.0
2018-Feb-02 23:00N 45°28' E 012°14'0 0.0
2018-Feb-02 22:27N 45°28' E 012°14'0 0.0
2018-Feb-02 21:57N 45°28' E 012°14'0 0.0
2018-Feb-02 21:30N 45°28' E 012°14'0 0.0
2018-Feb-02 21:00N 45°28' E 012°14'0 0.0
2018-Feb-02 20:30N 45°28' E 012°14'0 0.0
2018-Feb-02 20:00N 45°28' E 012°14'0 0.0
2018-Feb-02 19:00N 45°28' E 012°14'0 0.0
2018-Feb-02 18:27N 45°28' E 012°14'0 0.0
2018-Feb-02 18:00N 45°28' E 012°14'0 0.0
2018-Feb-02 17:30N 45°28' E 012°14'0 0.0
2018-Feb-02 17:00N 45°28' E 012°14'0 0.0
2018-Feb-02 16:30N 45°28' E 012°14'0 0.0
2018-Feb-02 15:27N 45°28' E 012°14'0 0.0
2018-Feb-02 14:27N 45°28' E 012°14'0 0.0
2018-Feb-02 13:57N 45°28' E 012°14'0 0.0
2018-Feb-02 13:21N 45°28' E 012°14'0 0.0
2018-Feb-02 13:00N 45°28' E 012°14'0 0.0
2018-Feb-02 12:27N 45°28' E 012°14'0 0.0
2018-Feb-02 10:54N 45°28' E 012°14'0 0.0
2018-Feb-02 08:00N 45°28' E 012°14'0 0.6
2018-Feb-02 07:25N 45°27' E 012°14'0 0.5
2018-Feb-02 06:58N 45°28' E 012°14'0 0.0
2018-Feb-02 06:28N 45°28' E 012°14'0 0.0
2018-Feb-02 05:58N 45°28' E 012°14'0 0.0
2018-Feb-02 05:28N 45°28' E 012°14'0 0.0
2018-Feb-02 04:58N 45°28' E 012°14'0 0.0
2018-Feb-02 04:28N 45°28' E 012°14'0 0.0
2018-Feb-02 03:58N 45°28' E 012°14'0 0.0
2018-Feb-02 03:28N 45°28' E 012°14'0 0.0
2018-Feb-02 02:58N 45°28' E 012°14'0 0.0
2018-Feb-02 02:28N 45°28' E 012°14'0 0.0
2018-Feb-02 01:58N 45°28' E 012°14'0 0.0
2018-Feb-02 01:28N 45°28' E 012°14'0 0.0
2018-Feb-02 00:55N 45°28' E 012°14'0 0.0
2018-Feb-02 00:28N 45°28' E 012°14'0 0.0
2018-Feb-01 23:58N 45°28' E 012°14'0 0.0
2018-Feb-01 23:28N 45°28' E 012°14'0 0.0
2018-Feb-01 22:58N 45°28' E 012°14'0 0.0
2018-Feb-01 21:58N 45°28' E 012°14'0 0.0
2018-Feb-01 21:28N 45°28' E 012°14'0 0.0
2018-Feb-01 19:28N 45°28' E 012°14'0 0.0
2018-Feb-01 18:58N 45°28' E 012°14'0 0.0
2018-Feb-01 18:28N 45°28' E 012°14'0 0.0
2018-Feb-01 17:58N 45°28' E 012°14'0 0.0
2018-Feb-01 17:28N 45°28' E 012°14'0 0.0
2018-Feb-01 16:58N 45°28' E 012°14'0 0.0
2018-Feb-01 16:28N 45°28' E 012°14'0 0.0
2018-Feb-01 15:58N 45°28' E 012°14'0 0.0
2018-Feb-01 15:28N 45°28' E 012°14'0 0.0
2018-Feb-01 14:58N 45°28' E 012°14'0 0.0
2018-Feb-01 13:28N 45°28' E 012°14'0 0.0
2018-Feb-01 12:58N 45°28' E 012°14'0 0.0
2018-Feb-01 12:25N 45°28' E 012°14'0 0.0
2018-Feb-01 11:58N 45°28' E 012°14'0 0.0
2018-Feb-01 10:58N 45°28' E 012°14'0 0.0
2018-Feb-01 10:28N 45°28' E 012°14'0 0.0
2018-Feb-01 09:58N 45°28' E 012°14'0 0.0
2018-Feb-01 09:28N 45°28' E 012°14'0 0.0
2018-Feb-01 08:55N 45°28' E 012°14'  
Track history (hours):
 
Tides and Currents Weather Stations Pressure Air Temp Water Temp Dewpoint Dewpoint Depression Visibility Wind Speed Wind Dir Waves Ship Positions

Stellar Pacific

Last reported at 2018-Feb-11 08:32 UTC. Time now 2018-Feb-19 08:30 UTC.
Position N 46°01' E 030°48'.

Length 135 m; draft 8.3 m.

Type: Cargo ship. MMSI: 304918000.

Date/timePositionNaut miles runAvg speedWind from/ knotsBaromVisibWave heightAir tempDewpointWater temp
2018-Feb-11 08:32N 46°01' E 030°48'2011.8
2018-Feb-11 06:50N 46°20' E 030°55'411.8
2018-Feb-11 06:31N 46°24' E 030°55'611.1
2018-Feb-11 06:00N 46°30' E 030°55'5 7.6
2018-Feb-11 05:24N 46°33' E 030°60'5 0.2
2018-Feb-10 04:48N 46°39' E 031°01'3 7.0
2018-Feb-10 04:25N 46°36' E 031°01'3 7.5
2018-Feb-10 04:00N 46°33' E 030°59'2 4.8
2018-Feb-10 03:30N 46°31' E 030°57'5 9.6
2018-Feb-10 03:01N 46°27' E 030°57'510.2
2018-Feb-10 02:30N 46°21' E 030°57'  
2018-Feb-05 18:32N 39°56' E 018°55'38313.1
2018-Feb-04 13:18N 44°35' E 013°02'513.1
2018-Feb-04 12:52N 44°40' E 012°60'513.2
2018-Feb-04 12:27N 44°46' E 012°57'613.2
2018-Feb-04 11:59N 44°51' E 012°53'713.1
2018-Feb-04 11:29N 44°57' E 012°49'1912.9
2018-Feb-04 10:00N 45°11' E 012°32'1111.4
2018-Feb-04 09:00N 45°20' E 012°21'4 8.1
2018-Feb-04 08:30N 45°21' E 012°15'5 8.7
2018-Feb-04 07:58N 45°26' E 012°16'2 3.6
2018-Feb-04 07:30N 45°27' E 012°14'0 0.8
2018-Feb-04 07:00N 45°28' E 012°14'0 0.0
2018-Feb-04 06:30N 45°28' E 012°14'0 0.0
2018-Feb-04 06:00N 45°28' E 012°14'0 0.0
2018-Feb-04 05:24N 45°28' E 012°14'0 0.0
2018-Feb-04 05:00N 45°28' E 012°14'0 0.0
2018-Feb-04 04:30N 45°28' E 012°14'0 0.0
2018-Feb-04 03:48N 45°28' E 012°14'0 0.0
2018-Feb-04 03:24N 45°28' E 012°14'0 0.0
2018-Feb-04 03:00N 45°28' E 012°14'0 0.0
2018-Feb-04 02:24N 45°28' E 012°14'0 0.0
2018-Feb-04 02:00N 45°28' E 012°14'0 0.0
2018-Feb-04 01:30N 45°28' E 012°14'0 0.0
2018-Feb-04 01:00N 45°28' E 012°14'0 0.0
2018-Feb-04 00:30N 45°28' E 012°14'0 0.0
2018-Feb-04 00:00N 45°28' E 012°14'0 0.0
2018-Feb-03 23:30N 45°28' E 012°14'0 0.0
2018-Feb-03 23:00N 45°28' E 012°14'0 0.0
2018-Feb-03 22:30N 45°28' E 012°14'0 0.0
2018-Feb-03 22:00N 45°28' E 012°14'0 0.0
2018-Feb-03 21:30N 45°28' E 012°14'0 0.0
2018-Feb-03 21:00N 45°28' E 012°14'0 0.0
2018-Feb-03 20:30N 45°28' E 012°14'0 0.0
2018-Feb-03 20:00N 45°28' E 012°14'0 0.0
2018-Feb-03 18:30N 45°28' E 012°14'0 0.0
2018-Feb-03 18:00N 45°28' E 012°14'0 0.0
2018-Feb-03 17:30N 45°28' E 012°14'0 0.0
2018-Feb-03 17:00N 45°28' E 012°14'0 0.0
2018-Feb-03 16:00N 45°28' E 012°14'0 0.0
2018-Feb-03 15:30N 45°28' E 012°14'0 0.0
2018-Feb-03 15:00N 45°28' E 012°14'0 0.0
2018-Feb-03 14:30N 45°28' E 012°14'0 0.0
2018-Feb-03 14:00N 45°28' E 012°14'0 0.0
2018-Feb-03 13:30N 45°28' E 012°14'0 0.0
2018-Feb-03 13:00N 45°28' E 012°14'0 0.0
2018-Feb-03 12:18N 45°28' E 012°14'0 0.0
2018-Feb-03 12:00N 45°28' E 012°14'0 0.0
2018-Feb-03 11:18N 45°28' E 012°14'0 0.0
2018-Feb-03 11:00N 45°28' E 012°14'0 0.0
2018-Feb-03 10:30N 45°28' E 012°14'0 0.0
2018-Feb-03 10:00N 45°28' E 012°14'0 0.0
2018-Feb-03 09:30N 45°28' E 012°14'0 0.0
2018-Feb-03 09:00N 45°28' E 012°14'0 0.0
2018-Feb-03 08:30N 45°28' E 012°14'0 0.0
2018-Feb-03 08:00N 45°28' E 012°14'0 0.0
2018-Feb-03 06:30N 45°28' E 012°14'0 0.0
2018-Feb-03 06:00N 45°28' E 012°14'0 0.0
2018-Feb-03 05:30N 45°28' E 012°14'0 0.0
2018-Feb-03 05:00N 45°28' E 012°14'0 0.0
2018-Feb-03 04:00N 45°28' E 012°14'0 0.0
2018-Feb-03 03:30N 45°28' E 012°14'0 0.0
2018-Feb-03 02:00N 45°28' E 012°14'0 0.0
2018-Feb-03 01:30N 45°28' E 012°14'0 0.0
2018-Feb-03 00:57N 45°28' E 012°14'0 0.0
2018-Feb-03 00:27N 45°28' E 012°14'0 0.0
2018-Feb-02 23:57N 45°28' E 012°14'0 0.0
2018-Feb-02 23:21N 45°28' E 012°14'0 0.0
2018-Feb-02 23:00N 45°28' E 012°14'0 0.0
2018-Feb-02 22:27N 45°28' E 012°14'0 0.0
2018-Feb-02 21:57N 45°28' E 012°14'0 0.0
2018-Feb-02 21:30N 45°28' E 012°14'0 0.0
2018-Feb-02 21:00N 45°28' E 012°14'0 0.0
2018-Feb-02 20:30N 45°28' E 012°14'0 0.0
2018-Feb-02 20:00N 45°28' E 012°14'0 0.0
2018-Feb-02 19:00N 45°28' E 012°14'0 0.0
2018-Feb-02 18:27N 45°28' E 012°14'0 0.0
2018-Feb-02 18:00N 45°28' E 012°14'0 0.0
2018-Feb-02 17:30N 45°28' E 012°14'0 0.0
2018-Feb-02 17:00N 45°28' E 012°14'0 0.0
2018-Feb-02 16:30N 45°28' E 012°14'0 0.0
2018-Feb-02 15:27N 45°28' E 012°14'0 0.0
2018-Feb-02 14:27N 45°28' E 012°14'0 0.0
2018-Feb-02 13:57N 45°28' E 012°14'0 0.0
2018-Feb-02 13:21N 45°28' E 012°14'0 0.0
2018-Feb-02 13:00N 45°28' E 012°14'0 0.0
2018-Feb-02 12:27N 45°28' E 012°14'0 0.0
2018-Feb-02 10:54N 45°28' E 012°14'0 0.0
2018-Feb-02 08:00N 45°28' E 012°14'0 0.6
2018-Feb-02 07:25N 45°27' E 012°14'0 0.5
2018-Feb-02 06:58N 45°28' E 012°14'0 0.0
2018-Feb-02 06:28N 45°28' E 012°14'0 0.0
2018-Feb-02 05:58N 45°28' E 012°14'0 0.0
2018-Feb-02 05:28N 45°28' E 012°14'0 0.0
2018-Feb-02 04:58N 45°28' E 012°14'0 0.0
2018-Feb-02 04:28N 45°28' E 012°14'0 0.0
2018-Feb-02 03:58N 45°28' E 012°14'0 0.0
2018-Feb-02 03:28N 45°28' E 012°14'0 0.0
2018-Feb-02 02:58N 45°28' E 012°14'0 0.0
2018-Feb-02 02:28N 45°28' E 012°14'0 0.0
2018-Feb-02 01:58N 45°28' E 012°14'0 0.0
2018-Feb-02 01:28N 45°28' E 012°14'0 0.0
2018-Feb-02 00:55N 45°28' E 012°14'0 0.0
2018-Feb-02 00:28N 45°28' E 012°14'0 0.0
2018-Feb-01 23:58N 45°28' E 012°14'0 0.0
2018-Feb-01 23:28N 45°28' E 012°14'0 0.0
2018-Feb-01 22:58N 45°28' E 012°14'0 0.0
2018-Feb-01 21:58N 45°28' E 012°14'0 0.0
2018-Feb-01 21:28N 45°28' E 012°14'0 0.0
2018-Feb-01 19:28N 45°28' E 012°14'0 0.0
2018-Feb-01 18:58N 45°28' E 012°14'0 0.0
2018-Feb-01 18:28N 45°28' E 012°14'0 0.0
2018-Feb-01 17:58N 45°28' E 012°14'0 0.0
2018-Feb-01 17:28N 45°28' E 012°14'0 0.0
2018-Feb-01 16:58N 45°28' E 012°14'0 0.0
2018-Feb-01 16:28N 45°28' E 012°14'0 0.0
2018-Feb-01 15:58N 45°28' E 012°14'0 0.0
2018-Feb-01 15:28N 45°28' E 012°14'0 0.0
2018-Feb-01 14:58N 45°28' E 012°14'0 0.0
2018-Feb-01 13:28N 45°28' E 012°14'0 0.0
2018-Feb-01 12:58N 45°28' E 012°14'0 0.0
2018-Feb-01 12:25N 45°28' E 012°14'0 0.0
2018-Feb-01 11:58N 45°28' E 012°14'0 0.0
2018-Feb-01 10:58N 45°28' E 012°14'0 0.0
2018-Feb-01 10:28N 45°28' E 012°14'0 0.0
2018-Feb-01 09:58N 45°28' E 012°14'0 0.0
2018-Feb-01 09:28N 45°28' E 012°14'0 0.0
2018-Feb-01 08:55N 45°28' E 012°14'  

Dump ship's entire track history